»·PEaware :: N143VT KCPR-KASE

N143VT :: KCPR-KASE

FLIGHT INFORMATION

Flight Status: Arrived
Operator: Privately registered:
United States
More flights under this callsign
Pilot: Anonymous 16492 (16492)
Aircraft: ECLIPSE 500
(EA50)
More flights by this aircraft type
Origin: KCPR Natrona Co Intl
United States
Destination: KASE Aspen-Pitkin Co/Sardy
United States
More flights between these airports :: More routes between these airports
Route: +BQZ360025 RLG V421 DBL
File this flight plan on PilotEdge
Remarks:
Altitude:
(Current/Filed)
23,000ft
Speed:
(Current/Filed)
350kts
Departed: 31-Jul-18 04:23 PM
Arrived: 31-Jul-18 05:14 PM
Distance/Time
Traveled:
222nm/0:50
Distance/Time
To Go:
Arrived

Flight Plot

Page will automatically refresh every two minutes.

Flight plan parsing failed; only flown route is shown


Map Options




Map Legend


Flown Route
Filed Route
Departure Airport
Arrival Airport
Navaid (VOR, NDB)
Fix

Horizontal Profiles

Position Reports

Time Latitude Longitude Heading Altitude Ground
Speed
31-Jul-18 15:59 42.902704 -106.459564 313 5350ft 0kts
31-Jul-18 16:00 42.902704 -106.459564 313 5350ft 0kts
31-Jul-18 16:01 42.902704 -106.459564 313 5350ft 0kts
31-Jul-18 16:02 42.902704 -106.459564 313 5350ft 0kts
31-Jul-18 16:03 42.902704 -106.459564 313 5350ft 0kts
31-Jul-18 16:04 42.902704 -106.459564 313 5350ft 0kts
31-Jul-18 16:05 42.902704 -106.459564 313 5350ft 0kts
31-Jul-18 16:06 42.902704 -106.459564 313 5350ft 0kts
31-Jul-18 16:07 42.902704 -106.459564 313 5350ft 0kts
31-Jul-18 16:08 42.902704 -106.459564 313 5350ft 0kts
31-Jul-18 16:09 42.902704 -106.459564 313 5350ft 0kts
31-Jul-18 16:10 42.902704 -106.459564 313 5350ft 0kts
31-Jul-18 16:11 42.902704 -106.459564 313 5350ft 0kts
31-Jul-18 16:12 42.902704 -106.459564 313 5350ft 0kts
31-Jul-18 16:13 42.902704 -106.459564 313 5350ft 0kts
31-Jul-18 16:14 42.902704 -106.459564 313 5350ft 0kts
31-Jul-18 16:15 42.902704 -106.459564 313 5350ft 0kts
31-Jul-18 16:16 42.902704 -106.459564 313 5350ft 0kts
31-Jul-18 16:17 42.902715 -106.459581 309 5350ft 1kts
31-Jul-18 16:18 42.901049 -106.462322 223 5350ft 18kts
31-Jul-18 16:19 42.895863 -106.469084 224 5350ft 24kts
31-Jul-18 16:20 42.893171 -106.472636 224 5350ft 8kts
31-Jul-18 16:21 42.892752 -106.474144 314 5350ft 0kts
31-Jul-18 16:22 42.893384 -106.474861 354 5350ft 2kts
31-Jul-18 16:23 42.893736 -106.474653 41 5350ft 6kts
31-Jul-18 16:24 42.917017 -106.444852 29 5629ft 167kts
31-Jul-18 16:25 42.957121 -106.443880 329 7039ft 199kts
31-Jul-18 16:26 42.940887 -106.498946 180 9444ft 212kts
31-Jul-18 16:27 42.881899 -106.494224 177 11435ft 216kts
31-Jul-18 16:28 42.831604 -106.534789 219 13161ft 218kts
31-Jul-18 16:29 42.778693 -106.575042 190 14758ft 230kts
31-Jul-18 16:30 42.714653 -106.586296 189 16238ft 237kts
31-Jul-18 16:31 42.649270 -106.596469 189 17838ft 234kts
31-Jul-18 16:32 42.585114 -106.605995 189 19157ft 238kts
31-Jul-18 16:33 42.519350 -106.615566 189 20370ft 244kts
31-Jul-18 16:34 42.451225 -106.625387 190 21534ft 249kts
31-Jul-18 16:35 42.381390 -106.635406 190 22621ft 255kts
31-Jul-18 16:36 42.307864 -106.645988 190 23021ft 288kts
31-Jul-18 16:37 42.223085 -106.658091 188 23043ft 323kts
31-Jul-18 16:38 42.130409 -106.671246 188 23079ft 346kts
31-Jul-18 16:39 42.033516 -106.684945 188 23099ft 351kts
31-Jul-18 16:40 41.936464 -106.698643 188 23100ft 353kts
31-Jul-18 16:41 41.839413 -106.712312 188 23095ft 353kts
31-Jul-18 16:42 41.742559 -106.725910 188 23099ft 353kts
31-Jul-18 16:43 41.645332 -106.739521 188 23100ft 353kts
31-Jul-18 16:44 41.548533 -106.752248 187 23101ft 353kts
31-Jul-18 16:45 41.450626 -106.763328 187 23101ft 354kts
31-Jul-18 16:46 41.353101 -106.774259 187 23102ft 353kts
31-Jul-18 16:47 41.255290 -106.785176 187 23103ft 353kts
31-Jul-18 16:48 41.158581 -106.795936 187 23103ft 354kts
31-Jul-18 16:49 41.060764 -106.806790 187 23091ft 353kts
31-Jul-18 16:50 40.963374 -106.817557 187 23065ft 353kts
31-Jul-18 16:51 40.868160 -106.828052 187 23054ft 352kts
31-Jul-18 16:52 40.770856 -106.838617 184 23052ft 353kts
31-Jul-18 16:53 40.681691 -106.788888 160 23055ft 358kts
31-Jul-18 16:54 40.589727 -106.743133 159 23054ft 357kts
31-Jul-18 16:55 40.497534 -106.695890 158 23055ft 357kts
31-Jul-18 16:56 40.405426 -106.648495 158 23056ft 357kts
31-Jul-18 16:57 40.313086 -106.601043 158 23057ft 358kts
31-Jul-18 16:58 40.220903 -106.553805 158 23058ft 358kts
31-Jul-18 16:59 40.131125 -106.507922 158 23078ft 358kts
31-Jul-18 17:00 40.038999 -106.461064 160 23093ft 357kts
31-Jul-18 17:01 39.949446 -106.492097 211 22015ft 334kts
31-Jul-18 17:02 39.868847 -106.552276 214 21034ft 332kts
31-Jul-18 17:03 39.792942 -106.612220 215 19974ft 298kts
31-Jul-18 17:04 39.726895 -106.665089 215 18494ft 284kts
31-Jul-18 17:05 39.662541 -106.716617 214 17022ft 265kts
31-Jul-18 17:06 39.607275 -106.760762 215 16735ft 232kts
31-Jul-18 17:07 39.549183 -106.807208 214 15906ft 234kts
31-Jul-18 17:08 39.493651 -106.851535 214 14071ft 235kts
31-Jul-18 17:09 39.442696 -106.895440 241 13370ft 206kts
31-Jul-18 17:10 39.408213 -106.948845 178 12933ft 207kts
31-Jul-18 17:11 39.358367 -106.930053 161 12331ft 189kts
31-Jul-18 17:12 39.309281 -106.908377 160 11617ft 182kts
31-Jul-18 17:13 39.262364 -106.883890 159 9255ft 176kts
31-Jul-18 17:14 39.221797 -106.868235 160 7839ft 103kts
31-Jul-18 17:15 39.217161 -106.864898 4 7839ft 6kts
31-Jul-18 17:16 39.220837 -106.865850 56 7839ft 5kts
31-Jul-18 17:17 39.221560 -106.865798 255 7839ft 0kts
31-Jul-18 17:18 39.221560 -106.865798 255 7839ft 0kts
31-Jul-18 17:19 39.221560 -106.865798 255 7839ft 0kts
31-Jul-18 17:20 39.221560 -106.865798 255 7839ft 0kts
31-Jul-18 17:21 39.221560 -106.865798 255 7839ft 0kts
31-Jul-18 17:22 39.221560 -106.865798 255 7839ft 0kts

Navigation Log

Ident Type
Flight plan parsing failed, navigation log unavailable